Time;durP1;ratioP1;P1;durP2;ratioP2;P2;SDS_P1;SDS_P2;PMS_P1;PMS_P2;Temp;Humidity;BMP_temperature;BMP_pressure;BME280_temperature;BME280_humidity;BME280_pressure;Samples;Min_cycle;Max_cycle;Signal;HPM_P1;HPM_P2
2022/01/02 00:02:13;;;;;;;12.40;6.83;;;10.30;1.00;;;;;;5057685;28;20875;-59
2022/01/02 00:04:49;;;;;;;10.40;7.20;;;10.30;99.90;;;;;;5057358;28;20462;-57
2022/01/02 00:07:17;;;;;;;7.97;6.90;;;10.30;99.90;;;;;;5057626;28;20560;-59
2022/01/02 00:09:48;;;;;;;8.20;6.20;;;10.30;99.90;;;;;;5057508;28;20978;-59
2022/01/02 00:12:21;;;;;;;8.67;6.40;;;10.30;99.90;;;;;;5056313;28;20494;-58
2022/01/02 00:14:49;;;;;;;11.30;7.03;;;10.30;99.90;;;;;;5040073;28;20458;-57
2022/01/02 00:17:22;;;;;;;10.07;7.57;;;10.30;99.90;;;;;;5057120;28;20466;-59
2022/01/02 00:19:53;;;;;;;7.83;6.90;;;10.30;99.90;;;;;;5056651;28;20466;-59
2022/01/02 00:22:25;;;;;;;10.53;6.73;;;10.30;1.00;;;;;;5057521;28;20887;-58
2022/01/02 00:24:53;;;;;;;11.83;6.83;;;10.30;1.00;;;;;;5057047;28;20488;-56
2022/01/02 00:27:22;;;;;;;8.37;7.20;;;10.30;1.00;;;;;;5057239;28;20743;-59
2022/01/02 00:29:50;;;;;;;9.20;6.50;;;10.30;1.00;;;;;;5056649;28;20462;-59
2022/01/02 00:32:19;;;;;;;10.77;6.97;;;10.40;1.00;;;;;;5056675;28;20490;-59
2022/01/02 00:34:55;;;;;;;7.30;6.20;;;10.30;1.00;;;;;;5061758;28;20493;-58
2022/01/02 00:37:22;;;;;;;7.60;6.53;;;10.40;1.00;;;;;;5063968;28;20516;-58
2022/01/02 00:39:52;;;;;;;8.50;7.17;;;10.30;1.00;;;;;;5063777;28;20469;-59
2022/01/02 00:42:26;;;;;;;10.00;6.90;;;10.40;1.00;;;;;;5063720;28;20879;-59
2022/01/02 00:44:58;;;;;;;8.13;7.23;;;10.40;1.00;;;;;;5062985;28;20552;-59
2022/01/02 00:47:35;;;;;;;7.83;6.00;;;10.40;99.90;;;;;;5063702;28;20462;-57
2022/01/02 00:50:08;;;;;;;7.60;6.50;;;10.40;99.90;;;;;;5063107;28;20492;-59
2022/01/02 00:52:43;;;;;;;7.50;6.60;;;10.40;1.00;;;;;;5063438;28;20564;-59
2022/01/02 00:55:12;;;;;;;8.60;7.70;;;10.40;99.90;;;;;;5062764;28;20906;-58
2022/01/02 00:57:43;;;;;;;11.40;6.20;;;10.40;1.00;;;;;;5062866;28;20465;-57
2022/01/02 01:00:13;;;;;;;9.90;6.70;;;10.40;1.00;;;;;;5063585;28;20462;-56
2022/01/02 01:02:45;;;;;;;8.27;6.10;;;10.40;99.90;;;;;;5063400;28;20457;-58
2022/01/02 01:05:16;;;;;;;7.40;6.07;;;10.40;99.90;;;;;;5063337;28;20490;-59
2022/01/02 01:07:47;;;;;;;6.93;5.77;;;10.40;99.90;;;;;;5062850;28;20528;-59
2022/01/02 01:10:15;;;;;;;6.90;6.10;;;10.40;99.90;;;;;;5063678;28;20466;-59
2022/01/02 01:12:44;;;;;;;11.27;6.20;;;10.40;99.90;;;;;;5063066;28;21004;-58
2022/01/02 01:15:12;;;;;;;6.63;5.90;;;10.30;99.90;;;;;;5063306;28;20924;-58
2022/01/02 01:17:39;;;;;;;7.13;6.03;;;10.30;99.90;;;;;;5063760;28;20515;-56
2022/01/02 01:20:12;;;;;;;7.27;5.80;;;10.40;99.90;;;;;;5062922;28;20515;-59
2022/01/02 01:22:39;;;;;;;8.60;6.23;;;10.30;99.90;;;;;;5063470;28;20516;-58
2022/01/02 01:25:12;;;;;;;7.10;5.77;;;10.30;1.00;;;;;;5063395;28;20486;-59
2022/01/02 01:27:39;;;;;;;8.97;7.07;;;10.30;1.00;;;;;;5063437;28;20535;-57
2022/01/02 01:30:09;;;;;;;6.93;5.77;;;10.20;1.00;;;;;;5063212;28;20891;-59
2022/01/02 01:32:36;;;;;;;7.40;5.27;;;10.20;1.00;;;;;;5063195;28;21025;-59
2022/01/02 01:35:03;;;;;;;6.40;5.63;;;10.20;1.00;;;;;;5063481;28;20912;-59
2022/01/02 01:37:30;;;;;;;6.60;5.90;;;10.20;1.00;;;;;;5062951;28;20477;-59
2022/01/02 01:39:57;;;;;;;8.90;5.87;;;10.30;1.00;;;;;;5062820;28;20803;-57
2022/01/02 01:42:32;;;;;;;8.77;6.07;;;10.20;99.90;;;;;;5063125;28;20454;-59
2022/01/02 01:47:49;;;;;;;10.40;5.80;;;10.30;99.90;;;;;;5058778;28;20462;-59
2022/01/02 01:50:17;;;;;;;7.40;5.97;;;10.30;99.90;;;;;;5059924;28;20458;-58
2022/01/02 01:52:44;;;;;;;8.00;5.70;;;10.30;99.90;;;;;;5059339;28;20493;-59
2022/01/02 01:55:17;;;;;;;8.50;5.03;;;10.30;99.90;;;;;;5059733;28;20458;-57
2022/01/02 01:57:44;;;;;;;5.90;4.90;;;10.40;99.90;;;;;;5059926;28;20462;-59
2022/01/02 02:00:16;;;;;;;6.63;5.17;;;10.40;99.90;;;;;;5059700;28;20917;-57
2022/01/02 02:02:44;;;;;;;6.00;4.80;;;10.40;99.90;;;;;;5059529;28;20469;-56
2022/01/02 02:05:13;;;;;;;6.90;5.53;;;10.30;99.90;;;;;;5059668;28;20462;-58
2022/01/02 02:07:42;;;;;;;7.13;5.07;;;10.30;99.90;;;;;;5060079;28;20508;-57
2022/01/02 02:10:14;;;;;;;6.03;5.43;;;10.30;99.90;;;;;;5059616;28;20472;-57
2022/01/02 02:12:42;;;;;;;5.13;4.63;;;10.40;99.90;;;;;;5059458;28;20548;-59
2022/01/02 02:15:11;;;;;;;7.60;5.93;;;10.40;91.80;;;;;;5059422;28;20537;-58
2022/01/02 02:17:38;;;;;;;6.67;5.30;;;10.50;1.00;;;;;;5059451;28;20516;-58
2022/01/02 02:20:15;;;;;;;7.30;6.43;;;10.50;1.00;;;;;;5058899;28;20470;-59
2022/01/02 02:22:45;;;;;;;5.80;5.20;;;10.50;1.00;;;;;;5059252;28;20468;-59
2022/01/02 02:25:13;;;;;;;6.07;5.27;;;10.50;1.00;;;;;;5059259;28;20471;-58
2022/01/02 02:27:41;;;;;;;17.13;4.43;;;10.50;1.00;;;;;;5059542;28;20463;-59
2022/01/02 02:30:09;;;;;;;5.83;5.00;;;10.60;1.00;;;;;;5059096;28;20463;-59
2022/01/02 02:32:36;;;;;;;8.67;5.43;;;10.60;1.00;;;;;;5058902;28;20490;-59
2022/01/02 02:35:03;;;;;;;7.30;4.97;;;10.60;1.00;;;;;;5058829;28;20462;-58
2022/01/02 02:37:32;;;;;;;6.10;4.67;;;10.70;1.00;;;;;;5059150;28;20458;-54
2022/01/02 02:39:59;;;;;;;5.70;5.10;;;10.60;1.00;;;;;;5058851;28;20484;-58
2022/01/02 02:42:36;;;;;;;7.00;5.07;;;10.60;1.00;;;;;;5058998;28;20470;-58
2022/01/02 02:50:35;;;;;;;6.97;4.40;;;10.60;1.00;;;;;;5057941;28;20437;-59
2022/01/02 02:53:03;;;;;;;5.90;4.67;;;10.60;1.00;;;;;;5058908;28;20576;-60
2022/01/02 02:55:32;;;;;;;5.87;4.53;;;10.60;1.00;;;;;;5058576;28;20462;-59
2022/01/02 02:58:16;;;;;;;6.13;5.53;;;10.60;1.00;;;;;;5058609;28;20520;-58
2022/01/02 03:00:43;;;;;;;9.50;5.77;;;10.60;1.00;;;;;;5058552;28;20466;-59
2022/01/02 03:03:10;;;;;;;5.70;4.43;;;10.60;1.00;;;;;;5058808;28;20458;-57
2022/01/02 03:05:37;;;;;;;8.20;4.70;;;10.60;1.00;;;;;;5058194;28;20462;-55
2022/01/02 03:08:06;;;;;;;6.43;5.80;;;10.60;1.00;;;;;;5058054;28;20484;-59
2022/01/02 03:10:33;;;;;;;6.00;5.40;;;10.70;1.00;;;;;;5057692;28;21012;-59
2022/01/02 03:13:00;;;;;;;6.77;4.80;;;10.70;1.00;;;;;;5057927;28;20494;-59
2022/01/02 03:15:27;;;;;;;6.83;5.00;;;10.60;1.00;;;;;;5057981;28;20462;-56
2022/01/02 03:17:54;;;;;;;5.10;4.60;;;10.70;1.00;;;;;;5057870;28;20470;-53
2022/01/02 03:20:21;;;;;;;5.90;4.90;;;10.70;1.00;;;;;;5058036;28;20494;-57
2022/01/02 03:22:48;;;;;;;7.77;4.87;;;10.70;1.00;;;;;;5057470;28;20462;-58
2022/01/02 03:25:17;;;;;;;6.03;5.30;;;10.70;1.00;;;;;;5057912;28;20876;-58
2022/01/02 03:27:45;;;;;;;8.50;5.67;;;10.70;1.00;;;;;;5057983;28;20467;-58
2022/01/02 03:30:14;;;;;;;7.43;4.90;;;10.70;1.00;;;;;;5057364;28;20466;-58
2022/01/02 03:32:41;;;;;;;12.13;4.90;;;10.70;1.00;;;;;;5057680;28;20559;-56
2022/01/02 03:35:09;;;;;;;7.00;5.40;;;10.80;1.00;;;;;;5057792;28;20496;-56
2022/01/02 03:37:36;;;;;;;7.07;5.27;;;10.80;1.00;;;;;;5057609;28;20490;-57
2022/01/02 03:40:07;;;;;;;7.33;5.27;;;10.70;1.00;;;;;;5057340;28;20462;-55
2022/01/02 03:42:35;;;;;;;8.97;5.00;;;10.70;1.00;;;;;;5057129;28;20470;-57
2022/01/02 03:45:03;;;;;;;6.53;4.87;;;10.70;1.00;;;;;;5057542;28;20858;-56
2022/01/02 03:47:30;;;;;;;6.77;5.27;;;10.70;1.00;;;;;;5057344;28;20532;-54
2022/01/02 03:49:57;;;;;;;7.37;5.67;;;10.80;1.00;;;;;;5057428;28;20461;-57
2022/01/02 03:52:24;;;;;;;10.13;5.77;;;10.70;1.00;;;;;;5056948;28;20490;-59
2022/01/02 03:54:51;;;;;;;7.80;5.20;;;10.80;1.00;;;;;;5056779;28;20462;-58
2022/01/02 03:57:21;;;;;;;7.47;5.20;;;10.70;1.00;;;;;;5057307;28;20466;-60
2022/01/02 03:59:49;;;;;;;6.23;5.33;;;10.60;1.00;;;;;;5056738;28;20480;-59
2022/01/02 04:02:17;;;;;;;8.13;5.07;;;10.60;1.00;;;;;;5056961;28;20462;-52
2022/01/02 04:04:44;;;;;;;7.43;5.13;;;10.60;1.00;;;;;;5057230;28;20496;-59
2022/01/02 04:07:13;;;;;;;6.53;4.60;;;10.60;1.00;;;;;;5057029;28;20565;-55
2022/01/02 04:09:40;;;;;;;8.50;5.50;;;10.60;1.00;;;;;;5056703;28;20553;-58
2022/01/02 04:12:08;;;;;;;6.70;5.50;;;10.60;1.00;;;;;;5056180;28;20988;-59
2022/01/02 04:14:35;;;;;;;8.47;5.50;;;10.60;98.70;;;;;;5056581;28;20816;-61
2022/01/02 04:17:06;;;;;;;7.90;5.70;;;10.60;99.90;;;;;;5056345;28;20816;-61
2022/01/02 04:19:33;;;;;;;6.50;5.57;;;10.60;99.90;;;;;;5056970;28;20539;-61
2022/01/02 04:22:00;;;;;;;5.80;5.20;;;10.60;99.90;;;;;;5056722;28;20962;-56
2022/01/02 04:24:27;;;;;;;10.80;5.80;;;10.50;99.90;;;;;;5056713;28;20551;-60
2022/01/02 04:26:54;;;;;;;7.73;5.83;;;10.50;1.00;;;;;;5056652;28;20489;-54
2022/01/02 04:29:21;;;;;;;7.30;5.33;;;10.50;69.40;;;;;;5057001;28;20747;-58
2022/01/02 04:31:48;;;;;;;7.57;5.77;;;10.50;21.50;;;;;;5056409;28;20462;-59
2022/01/02 04:34:16;;;;;;;7.77;5.43;;;10.50;1.00;;;;;;5056677;28;20458;-54
2022/01/02 04:36:43;;;;;;;8.10;5.40;;;10.50;1.00;;;;;;5056652;28;20955;-60
2022/01/02 04:39:10;;;;;;;8.60;5.83;;;10.40;1.00;;;;;;5056807;28;20466;-58
2022/01/02 04:41:37;;;;;;;6.43;5.43;;;10.40;46.80;;;;;;5056300;28;20903;-56
2022/01/02 04:44:04;;;;;;;6.23;5.33;;;10.40;99.90;;;;;;5056369;28;20458;-59
2022/01/02 04:46:31;;;;;;;8.47;5.43;;;10.50;1.00;;;;;;5055724;28;20462;-58
2022/01/02 04:48:58;;;;;;;7.00;6.00;;;10.50;99.90;;;;;;5056559;28;20462;-55
2022/01/02 04:51:26;;;;;;;7.20;5.83;;;10.40;1.00;;;;;;5056572;28;20462;-57
2022/01/02 04:53:54;;;;;;;7.87;4.80;;;10.50;1.00;;;;;;5056327;28;20494;-60
2022/01/02 04:56:21;;;;;;;8.83;6.43;;;10.50;99.90;;;;;;5056252;28;20512;-57
2022/01/02 04:58:48;;;;;;;7.97;5.80;;;10.50;1.00;;;;;;5056584;28;20458;-58
2022/01/02 05:01:16;;;;;;;7.40;5.77;;;10.40;99.90;;;;;;5056647;28;20824;-60
2022/01/02 05:03:43;;;;;;;7.03;5.57;;;10.40;99.90;;;;;;5056709;28;20560;-54
2022/01/02 05:06:11;;;;;;;8.43;6.07;;;10.40;20.40;;;;;;5056282;28;20902;-54
2022/01/02 05:08:43;;;;;;;6.87;6.00;;;10.40;99.90;;;;;;5056403;28;20486;-60
2022/01/02 05:11:10;;;;;;;9.90;7.03;;;10.40;1.00;;;;;;5055758;28;20502;-59
2022/01/02 05:13:38;;;;;;;9.63;6.73;;;10.40;1.00;;;;;;5056448;28;20814;-60
2022/01/02 05:16:06;;;;;;;8.30;6.57;;;10.40;1.00;;;;;;5056362;28;20462;-61
2022/01/02 05:18:33;;;;;;;9.13;6.60;;;10.30;1.00;;;;;;5056314;28;20436;-61
2022/01/02 05:21:00;;;;;;;8.87;6.13;;;10.30;34.30;;;;;;5057400;28;20516;-61
2022/01/02 05:23:29;;;;;;;10.80;6.50;;;10.30;99.90;;;;;;5060366;28;20454;-56
2022/01/02 05:25:57;;;;;;;8.10;5.70;;;10.30;99.90;;;;;;5059556;28;20461;-57
2022/01/02 05:28:26;;;;;;;8.03;5.57;;;10.30;99.90;;;;;;5059808;28;20498;-59
2022/01/02 05:30:53;;;;;;;7.23;5.80;;;10.30;99.90;;;;;;5059893;28;20773;-61
2022/01/02 05:33:20;;;;;;;8.30;6.03;;;10.30;99.90;;;;;;5059967;28;20958;-61
2022/01/02 05:35:47;;;;;;;10.13;6.00;;;10.30;99.90;;;;;;5059473;28;20462;-60
2022/01/02 05:38:15;;;;;;;16.60;7.33;;;10.30;99.90;;;;;;5059806;28;20465;-60
2022/01/02 05:40:42;;;;;;;10.90;7.30;;;10.30;99.90;;;;;;5059778;28;20499;-60
2022/01/02 05:43:11;;;;;;;9.70;7.13;;;10.30;99.90;;;;;;5059728;28;20458;-61
2022/01/02 05:45:38;;;;;;;9.00;5.90;;;10.30;99.90;;;;;;5059876;28;20458;-61
2022/01/02 05:48:08;;;;;;;9.87;7.03;;;10.30;99.90;;;;;;5059511;28;20516;-60
2022/01/02 05:50:35;;;;;;;12.50;6.10;;;10.20;99.90;;;;;;5060070;28;20458;-59
2022/01/02 05:53:02;;;;;;;8.63;6.53;;;10.20;99.90;;;;;;5059799;28;20494;-61
2022/01/02 05:55:29;;;;;;;9.50;7.20;;;10.20;99.90;;;;;;5059652;28;20584;-60
2022/01/02 05:57:55;;;;;;;8.87;6.73;;;10.20;99.90;;;;;;5059319;28;20524;-57
2022/01/02 06:00:24;;;;;;;7.90;6.40;;;10.20;99.90;;;;;;5059210;28;20462;-59
2022/01/02 06:02:51;;;;;;;11.27;6.60;;;10.20;99.90;;;;;;5059723;28;20458;-57
2022/01/02 06:05:18;;;;;;;12.00;7.97;;;10.20;99.90;;;;;;5059528;28;20563;-59
2022/01/02 06:07:45;;;;;;;9.00;6.80;;;10.10;99.90;;;;;;5058924;28;20458;-58
2022/01/02 06:10:12;;;;;;;11.53;6.93;;;10.10;99.90;;;;;;5059014;28;20458;-59
2022/01/02 06:12:39;;;;;;;9.60;6.80;;;10.10;99.90;;;;;;5058539;28;20486;-58
2022/01/02 06:15:07;;;;;;;12.37;6.63;;;10.00;99.90;;;;;;5059241;28;20524;-58
2022/01/02 06:17:35;;;;;;;10.10;6.80;;;10.10;99.90;;;;;;5059444;28;20458;-58
2022/01/02 06:20:03;;;;;;;7.80;6.40;;;10.10;99.90;;;;;;5058684;28;20458;-60
2022/01/02 06:22:30;;;;;;;10.20;6.70;;;10.00;99.90;;;;;;5057991;28;20520;-61
2022/01/02 06:24:57;;;;;;;11.60;7.07;;;10.10;99.90;;;;;;5059125;28;20458;-60
2022/01/02 06:27:24;;;;;;;11.43;6.70;;;10.10;99.90;;;;;;5058878;28;20462;-60
2022/01/02 06:29:51;;;;;;;9.90;7.67;;;10.10;99.90;;;;;;5058790;28;20466;-61
2022/01/02 06:32:18;;;;;;;11.27;6.30;;;10.00;99.90;;;;;;5058250;28;20462;-61
2022/01/02 06:34:49;;;;;;;15.03;7.10;;;10.00;99.90;;;;;;5058740;28;20517;-57
2022/01/02 06:37:16;;;;;;;9.13;7.07;;;10.10;99.90;;;;;;5058951;28;20473;-59
2022/01/02 06:39:43;;;;;;;8.87;6.83;;;10.10;99.90;;;;;;5058632;28;20520;-58
2022/01/02 06:42:10;;;;;;;7.93;6.90;;;10.00;99.90;;;;;;5058564;28;20932;-60
2022/01/02 06:44:39;;;;;;;9.20;7.17;;;10.00;99.90;;;;;;5058965;28;20454;-60
2022/01/02 06:47:06;;;;;;;7.80;6.50;;;10.00;99.90;;;;;;5058689;28;20894;-61
2022/01/02 06:49:33;;;;;;;8.70;6.90;;;10.00;99.90;;;;;;5059015;28;20481;-61
2022/01/02 06:52:01;;;;;;;12.73;7.67;;;10.00;99.90;;;;;;5058129;28;20492;-61
2022/01/02 06:54:28;;;;;;;8.67;7.37;;;10.00;99.90;;;;;;5058254;28;20494;-58
2022/01/02 06:56:55;;;;;;;13.30;7.70;;;10.00;99.90;;;;;;5058439;28;20515;-60
2022/01/02 06:59:23;;;;;;;9.27;7.20;;;9.90;99.90;;;;;;5057926;28;20466;-60
2022/01/02 07:01:50;;;;;;;10.70;6.73;;;9.90;99.90;;;;;;5057929;28;20466;-60
2022/01/02 07:04:18;;;;;;;15.70;7.30;;;10.00;99.90;;;;;;5057882;28;20458;-61
2022/01/02 07:06:45;;;;;;;9.07;7.00;;;10.00;99.90;;;;;;5058077;28;20751;-61
2022/01/02 07:09:13;;;;;;;9.63;6.77;;;10.00;99.90;;;;;;5057821;28;20489;-61
2022/01/02 07:11:40;;;;;;;10.83;6.40;;;10.00;99.90;;;;;;5057628;28;20540;-59
2022/01/02 07:14:07;;;;;;;8.10;6.50;;;10.00;99.90;;;;;;5058096;28;20526;-60
2022/01/02 07:16:36;;;;;;;10.83;7.93;;;10.00;99.90;;;;;;5058102;28;20484;-62
2022/01/02 07:19:03;;;;;;;10.77;6.93;;;10.00;99.90;;;;;;5058067;28;20458;-62
2022/01/02 07:21:30;;;;;;;12.00;6.50;;;10.10;99.90;;;;;;5058304;28;20515;-61
2022/01/02 07:23:58;;;;;;;11.37;6.70;;;10.10;99.90;;;;;;5057892;28;20929;-61
2022/01/02 07:26:29;;;;;;;9.00;7.10;;;10.10;99.90;;;;;;5057798;28;20888;-61
2022/01/02 07:29:01;;;;;;;12.23;6.90;;;10.10;99.90;;;;;;5057732;28;20461;-62
2022/01/02 07:31:28;;;;;;;12.70;7.40;;;10.10;99.90;;;;;;5057897;28;20515;-59
2022/01/02 07:33:55;;;;;;;8.53;6.47;;;10.10;99.90;;;;;;5057430;28;20839;-60
2022/01/02 07:36:22;;;;;;;15.70;7.70;;;10.10;99.90;;;;;;5057588;28;20459;-62
2022/01/02 07:38:49;;;;;;;13.37;7.40;;;10.20;99.90;;;;;;5057530;28;20822;-59
2022/01/02 07:41:16;;;;;;;10.53;6.60;;;10.20;99.90;;;;;;5057591;28;20520;-62
2022/01/02 07:43:45;;;;;;;11.77;5.90;;;10.20;99.90;;;;;;5056767;28;20508;-60
2022/01/02 07:46:12;;;;;;;7.57;6.30;;;10.20;99.90;;;;;;5057491;28;20468;-61
2022/01/02 07:48:41;;;;;;;8.00;6.57;;;10.20;99.90;;;;;;5057346;28;20462;-60
2022/01/02 07:51:08;;;;;;;10.83;7.60;;;10.20;99.90;;;;;;5057480;28;20469;-62
2022/01/02 07:53:35;;;;;;;12.10;6.80;;;10.20;99.90;;;;;;5057604;28;20525;-61
2022/01/02 07:56:05;;;;;;;9.00;6.27;;;10.20;99.90;;;;;;5057231;28;20735;-61
2022/01/02 07:58:32;;;;;;;10.47;6.77;;;10.20;99.90;;;;;;5057171;28;20915;-60
2022/01/02 08:01:03;;;;;;;10.07;6.60;;;10.30;99.90;;;;;;5057382;28;20469;-59
2022/01/02 08:03:30;;;;;;;8.57;5.90;;;10.30;99.90;;;;;;5057315;28;20864;-60
2022/01/02 08:05:57;;;;;;;8.47;5.73;;;10.30;99.90;;;;;;5056752;28;20458;-60
2022/01/02 08:08:24;;;;;;;9.77;6.47;;;10.20;99.90;;;;;;5054273;28;20774;-61
2022/01/02 08:10:51;;;;;;;7.63;5.40;;;10.20;99.90;;;;;;5049580;28;20502;-62
2022/01/02 08:13:21;;;;;;;10.63;6.23;;;10.20;99.90;;;;;;5056335;28;20498;-62
2022/01/02 08:15:49;;;;;;;8.50;5.60;;;10.20;99.90;;;;;;5056592;28;20515;-61
2022/01/02 08:18:18;;;;;;;12.07;6.67;;;10.10;1.00;;;;;;5056724;28;20549;-61
2022/01/02 08:20:45;;;;;;;10.53;5.70;;;10.10;1.00;;;;;;5056828;28;20462;-61
2022/01/02 08:23:13;;;;;;;8.43;6.60;;;10.10;1.00;;;;;;5057346;28;20584;-60
2022/01/02 08:25:40;;;;;;;8.17;6.07;;;10.10;1.00;;;;;;5057140;28;20502;-60
2022/01/02 08:28:07;;;;;;;8.63;6.33;;;10.10;1.00;;;;;;5056784;28;20743;-62
2022/01/02 08:30:36;;;;;;;11.83;6.10;;;10.20;99.90;;;;;;5056364;28;20462;-61
2022/01/02 08:33:03;;;;;;;6.73;5.20;;;10.20;1.00;;;;;;5056956;28;20497;-62
2022/01/02 08:35:32;;;;;;;6.03;4.80;;;10.20;99.90;;;;;;5056860;28;20458;-61
2022/01/02 08:37:59;;;;;;;6.17;4.97;;;10.20;99.90;;;;;;5056747;28;20466;-61
2022/01/02 08:40:26;;;;;;;8.00;5.60;;;10.30;1.00;;;;;;5052935;28;20516;-60
2022/01/02 08:42:53;;;;;;;7.20;4.77;;;10.30;99.90;;;;;;5041323;28;20474;-59
2022/01/02 08:45:20;;;;;;;6.43;4.90;;;10.40;34.30;;;;;;5045051;28;20458;-61
2022/01/02 08:47:47;;;;;;;6.70;5.00;;;10.40;1.00;;;;;;5055973;28;20531;-60
2022/01/02 08:50:14;;;;;;;5.30;4.53;;;10.40;1.00;;;;;;5056723;28;20465;-61
2022/01/02 08:52:43;;;;;;;4.90;4.40;;;10.50;1.00;;;;;;5056740;28;20494;-60
2022/01/02 08:55:14;;;;;;;8.20;4.50;;;10.50;1.00;;;;;;5053022;28;20516;-60
2022/01/02 08:57:41;;;;;;;5.57;4.43;;;10.50;1.00;;;;;;5057170;28;20498;-61
2022/01/02 09:00:09;;;;;;;7.83;5.17;;;10.50;99.90;;;;;;5059252;28;20512;-61
2022/01/02 09:02:36;;;;;;;6.73;4.50;;;10.50;99.90;;;;;;5060141;28;20462;-61
2022/01/02 09:05:04;;;;;;;8.50;5.17;;;10.50;99.90;;;;;;5056262;28;20466;-59
2022/01/02 09:07:31;;;;;;;7.03;5.17;;;10.60;99.90;;;;;;5053855;28;20488;-59
2022/01/02 09:09:59;;;;;;;5.20;4.60;;;10.60;99.90;;;;;;5055330;28;20561;-60
2022/01/02 09:12:26;;;;;;;4.83;4.03;;;10.60;99.90;;;;;;5058591;28;20891;-61
2022/01/02 09:14:56;;;;;;;6.63;4.50;;;10.60;99.90;;;;;;5060016;28;20513;-60
2022/01/02 09:17:24;;;;;;;6.90;4.77;;;10.50;99.90;;;;;;5059883;28;20466;-59
2022/01/02 09:19:52;;;;;;;9.00;4.40;;;10.50;99.90;;;;;;5060103;28;20793;-60
2022/01/02 09:22:22;;;;;;;10.57;6.80;;;10.50;99.90;;;;;;5059971;28;20465;-57
2022/01/02 09:24:49;;;;;;;11.90;9.40;;;10.50;99.90;;;;;;5059309;28;20498;-58
2022/01/02 09:27:17;;;;;;;9.40;8.00;;;10.50;99.90;;;;;;5059896;28;20462;-61
2022/01/02 09:29:44;;;;;;;12.77;11.33;;;10.50;1.00;;;;;;5059376;28;20466;-61
2022/01/02 09:32:11;;;;;;;8.00;6.87;;;10.50;1.00;;;;;;5058149;28;20481;-62
2022/01/02 09:34:38;;;;;;;10.20;7.10;;;10.50;99.90;;;;;;5058038;28;20525;-61
2022/01/02 09:37:05;;;;;;;7.50;6.57;;;10.50;1.00;;;;;;5057201;28;20876;-61
2022/01/02 09:39:37;;;;;;;6.57;5.83;;;10.40;1.00;;;;;;5058155;28;20489;-60
2022/01/02 09:42:04;;;;;;;6.37;5.30;;;10.50;1.00;;;;;;5040839;28;20462;-61
2022/01/02 09:44:32;;;;;;;6.87;6.00;;;10.50;1.00;;;;;;5055636;28;20511;-60
2022/01/02 09:47:00;;;;;;;7.27;5.43;;;10.50;1.00;;;;;;5057917;28;20462;-60
2022/01/02 09:49:27;;;;;;;10.70;5.20;;;10.50;1.00;;;;;;5057804;28;20752;-62
2022/01/02 09:51:58;;;;;;;5.30;4.77;;;10.60;1.00;;;;;;5057723;28;20511;-61
2022/01/02 09:54:25;;;;;;;5.73;5.13;;;10.50;1.00;;;;;;5057564;28;20517;-62
2022/01/02 09:56:57;;;;;;;6.60;5.83;;;10.60;1.00;;;;;;5057905;28;20454;-61
2022/01/02 09:59:24;;;;;;;7.30;4.93;;;10.50;1.00;;;;;;5057168;28;20490;-60
2022/01/02 10:01:53;;;;;;;7.30;4.13;;;10.60;1.00;;;;;;5057847;28;20788;-62
2022/01/02 10:04:33;;;;;;;7.67;4.80;;;10.60;99.90;;;;;;5057295;28;20482;-62
2022/01/02 10:07:00;;;;;;;6.17;4.17;;;10.70;99.90;;;;;;5054704;28;20458;-62
2022/01/02 10:09:35;;;;;;;5.87;4.23;;;10.70;99.90;;;;;;5056274;28;20454;-62
2022/01/02 10:12:26;;;;;;;7.10;4.10;;;10.80;99.90;;;;;;5056954;28;20531;-62
2022/01/02 10:15:18;;;;;;;6.67;5.47;;;10.90;99.90;;;;;;5059344;28;20599;-62
2022/01/02 10:17:54;;;;;;;4.40;3.53;;;10.90;99.90;;;;;;5057246;28;20813;-62
2022/01/02 10:20:25;;;;;;;5.67;3.77;;;11.00;99.90;;;;;;5056726;28;20797;-60
2022/01/02 10:23:12;;;;;;;5.53;4.20;;;11.10;99.90;;;;;;5058496;28;20937;-61
2022/01/02 10:25:51;;;;;;;5.20;4.57;;;11.00;99.00;;;;;;5056883;28;20450;-61
2022/01/02 10:28:27;;;;;;;5.80;4.33;;;11.00;99.90;;;;;;5055444;28;20455;-62
2022/01/02 10:30:57;;;;;;;6.30;5.37;;;11.00;99.90;;;;;;5055055;28;20454;-62
2022/01/02 10:33:27;;;;;;;6.03;5.13;;;10.90;99.90;;;;;;5058727;28;20561;-61
2022/01/02 10:35:58;;;;;;;8.60;5.83;;;10.90;99.90;;;;;;5055262;28;20540;-58
2022/01/02 10:38:25;;;;;;;7.37;6.27;;;10.90;99.90;;;;;;5057106;28;20462;-61
2022/01/02 10:40:55;;;;;;;11.60;7.30;;;10.90;99.90;;;;;;5054968;28;20831;-62
2022/01/02 10:43:28;;;;;;;5.00;4.50;;;10.90;99.90;;;;;;5054724;28;20467;-62
2022/01/02 10:45:56;;;;;;;6.60;4.30;;;10.90;99.90;;;;;;5058227;28;20867;-59
2022/01/02 10:48:39;;;;;;;7.43;4.77;;;10.90;99.90;;;;;;5058446;28;20473;-62
2022/01/02 10:51:09;;;;;;;16.43;11.70;;;11.00;99.90;;;;;;5058627;28;20536;-62
2022/01/02 10:53:37;;;;;;;23.27;14.70;;;11.10;99.90;;;;;;5058890;28;20466;-62
2022/01/02 10:56:06;;;;;;;14.00;9.07;;;11.10;99.90;;;;;;5057938;28;20493;-61
2022/01/02 10:58:38;;;;;;;7.30;5.90;;;11.20;99.90;;;;;;5058535;28;20490;-62
2022/01/02 11:01:07;;;;;;;10.50;6.90;;;11.20;82.30;;;;;;5058289;28;20473;-62
2022/01/02 11:03:36;;;;;;;6.30;4.13;;;11.20;84.40;;;;;;5058737;28;20470;-60
2022/01/02 11:06:13;;;;;;;7.13;5.50;;;11.20;99.90;;;;;;5057894;28;20462;-62
2022/01/02 11:08:45;;;;;;;6.07;4.30;;;11.20;99.90;;;;;;5057746;28;20446;-63
2022/01/02 11:11:12;;;;;;;4.97;3.93;;;11.20;99.90;;;;;;5054878;28;20494;-62
2022/01/02 11:13:40;;;;;;;5.20;4.70;;;11.30;99.90;;;;;;5056867;28;20501;-62
2022/01/02 11:16:13;;;;;;;4.90;4.20;;;11.20;99.90;;;;;;5056774;28;21006;-62
2022/01/02 11:18:40;;;;;;;6.63;5.10;;;11.30;96.60;;;;;;5054011;28;20824;-62
2022/01/02 11:21:12;;;;;;;6.47;4.17;;;11.40;93.10;;;;;;5055952;28;20462;-62
2022/01/02 11:23:52;;;;;;;5.67;4.30;;;11.40;94.80;;;;;;5056276;28;20458;-60
2022/01/02 11:26:31;;;;;;;6.77;4.97;;;11.50;86.00;;;;;;5056506;28;20481;-62
2022/01/02 11:28:59;;;;;;;6.70;5.00;;;11.60;99.90;;;;;;5052805;28;20504;-63
2022/01/02 11:31:33;;;;;;;5.47;4.30;;;11.60;85.70;;;;;;5056506;28;20490;-63
2022/01/02 11:34:00;;;;;;;5.47;4.83;;;11.60;78.20;;;;;;5054232;28;20501;-63
2022/01/02 11:36:34;;;;;;;6.33;4.33;;;11.60;76.80;;;;;;5056477;28;20539;-63
2022/01/02 11:39:05;;;;;;;8.10;4.57;;;11.70;66.30;;;;;;5054259;28;20454;-63
2022/01/02 11:41:40;;;;;;;6.73;4.37;;;11.70;62.60;;;;;;5056599;28;20574;-63
2022/01/02 11:44:09;;;;;;;5.70;4.23;;;11.80;61.40;;;;;;5056068;28;20462;-63
2022/01/02 11:46:50;;;;;;;6.70;5.37;;;11.80;68.00;;;;;;5055188;28;20508;-63
2022/01/02 11:49:26;;;;;;;6.87;4.97;;;11.80;87.10;;;;;;5054006;28;20465;-64
2022/01/02 11:52:12;;;;;;;9.73;5.33;;;11.80;57.50;;;;;;5053960;28;20444;-63
2022/01/02 11:54:53;;;;;;;7.50;5.10;;;11.90;99.90;;;;;;5053162;28;20490;-63
2022/01/02 11:57:54;;;;;;;5.90;4.63;;;11.80;99.90;;;;;;5054537;28;20556;-63
2022/01/02 12:00:44;;;;;;;8.70;5.67;;;11.80;99.90;;;;;;5054493;28;20456;-61
2022/01/02 12:03:51;;;;;;;7.60;5.07;;;11.90;99.90;;;;;;5043135;28;20556;-64
2022/01/02 12:06:35;;;;;;;6.00;5.40;;;11.90;99.90;;;;;;5053427;28;20462;-64
2022/01/02 12:09:06;;;;;;;7.43;5.13;;;11.90;99.90;;;;;;5053541;28;20516;-64
2022/01/02 12:11:45;;;;;;;6.43;5.27;;;12.00;99.90;;;;;;5052582;28;20531;-64
2022/01/02 12:14:19;;;;;;;9.40;6.20;;;12.00;99.90;;;;;;5052841;28;20462;-65
2022/01/02 12:16:57;;;;;;;9.70;6.00;;;12.10;99.90;;;;;;5052499;28;20549;-65
2022/01/02 12:19:24;;;;;;;7.40;4.60;;;12.10;99.90;;;;;;5053964;28;20454;-66
2022/01/02 12:22:10;;;;;;;9.00;5.20;;;12.10;98.40;;;;;;5053986;28;20528;-65
2022/01/02 12:24:46;;;;;;;7.93;5.47;;;12.10;96.50;;;;;;5053797;28;20460;-65
2022/01/02 12:27:14;;;;;;;5.53;4.87;;;12.00;99.90;;;;;;5052681;28;20833;-65
2022/01/02 12:29:44;;;;;;;9.27;5.30;;;12.00;99.90;;;;;;5052623;28;20535;-65
2022/01/02 12:32:12;;;;;;;8.20;5.90;;;12.00;99.90;;;;;;5053896;28;20458;-64
2022/01/02 12:34:40;;;;;;;8.50;5.30;;;12.00;99.90;;;;;;5054712;28;20521;-65
2022/01/02 12:37:10;;;;;;;10.40;6.33;;;12.00;99.90;;;;;;5053674;28;20466;-65
2022/01/02 12:39:40;;;;;;;12.50;6.53;;;12.00;99.90;;;;;;5054374;28;20887;-65
2022/01/02 12:42:14;;;;;;;7.67;5.50;;;12.00;99.90;;;;;;5052880;28;20544;-65
2022/01/02 12:44:43;;;;;;;6.53;5.00;;;11.90;99.90;;;;;;5054542;28;20545;-64
2022/01/02 12:47:12;;;;;;;8.10;4.80;;;11.90;99.90;;;;;;5054844;28;20458;-65
2022/01/02 12:49:43;;;;;;;10.50;6.67;;;11.90;99.90;;;;;;5055578;28;20523;-65
2022/01/02 12:52:12;;;;;;;10.97;5.10;;;11.90;99.90;;;;;;5052816;28;20489;-65
2022/01/02 12:54:40;;;;;;;6.13;4.23;;;11.90;99.90;;;;;;5055314;28;20883;-64
2022/01/02 12:57:10;;;;;;;5.90;4.60;;;12.00;99.90;;;;;;5048017;28;20485;-65
2022/01/02 12:59:39;;;;;;;11.30;5.17;;;11.90;99.90;;;;;;5054500;28;20462;-64
2022/01/02 13:02:07;;;;;;;6.90;4.23;;;11.90;99.90;;;;;;5045625;28;20900;-64
2022/01/02 13:04:40;;;;;;;9.53;5.00;;;11.90;99.90;;;;;;5053196;28;20454;-64
2022/01/02 13:07:12;;;;;;;8.20;4.47;;;11.90;99.90;;;;;;5052702;28;20454;-65
2022/01/02 13:09:43;;;;;;;5.60;4.37;;;11.90;99.90;;;;;;5054722;28;20545;-64